Time;durP1;ratioP1;P1;durP2;ratioP2;P2;SDS_P1;SDS_P2;PMS_P1;PMS_P2;Temp;Humidity;BMP_temperature;BMP_pressure;BME280_temperature;BME280_humidity;BME280_pressure;Samples;Min_cycle;Max_cycle;Signal;HPM_P1;HPM_P2
2024/04/08 00:01:57;;;;;;;;;;;;;;;14.70;84.72;101187.96;106852;1275;22535;-51
2024/04/08 00:04:24;;;;;;;;;;;;;;;14.66;84.88;101182.91;106868;1275;22661;-49
2024/04/08 00:06:50;;;;;;;;;;;;;;;14.64;85.09;101189.82;106919;1275;22983;-49
2024/04/08 00:09:17;;;;;;;;;;;;;;;14.63;85.04;101191.64;106896;1275;22498;-49
2024/04/08 00:11:43;;;;;;;;;;;;;;;14.64;85.38;101192.11;106785;1275;25375;-49
2024/04/08 00:14:10;;;;;;;;;;;;;;;14.62;85.45;101186.41;106906;1275;22807;-51
2024/04/08 00:16:36;;;;;;;;;;;;;;;14.57;85.64;101190.65;106941;1275;23977;-50
2024/04/08 00:19:03;;;;;;;;;;;;;;;14.52;85.85;101188.43;106896;1275;22573;-50
2024/04/08 00:21:29;;;;;;;;;;;;;;;14.48;85.97;101193.70;106813;1275;25427;-49
2024/04/08 00:23:56;;;;;;;;;;;;;;;14.44;86.06;101197.89;106869;1275;23964;-50
2024/04/08 00:26:22;;;;;;;;;;;;;;;14.41;86.29;101193.48;106977;1275;25290;-50
2024/04/08 00:28:49;;;;;;;;;;;;;;;14.39;86.40;101192.85;106862;1275;24185;-53
2024/04/08 00:31:15;;;;;;;;;;;;;;;14.38;86.50;101196.53;106789;1275;22507;-51
2024/04/08 00:33:42;;;;;;;;;;;;;;;14.38;86.54;101199.88;106815;1275;22506;-52
2024/04/08 00:36:08;;;;;;;;;;;;;;;14.36;86.63;101195.59;106813;1275;22540;-50
2024/04/08 00:38:35;;;;;;;;;;;;;;;14.32;86.69;101189.98;106812;1275;23925;-50
2024/04/08 00:41:02;;;;;;;;;;;;;;;14.30;86.94;101190.80;106776;1275;24311;-50
2024/04/08 00:43:32;;;;;;;;;;;;;;;14.28;87.22;101193.95;106886;1275;22441;-51
2024/04/08 00:45:59;;;;;;;;;;;;;;;14.26;87.24;101189.11;106890;1275;25204;-50
2024/04/08 00:48:25;;;;;;;;;;;;;;;14.26;87.18;101190.17;106778;1275;22509;-53
2024/04/08 00:50:52;;;;;;;;;;;;;;;14.27;87.41;101189.58;106844;1275;22453;-53
2024/04/08 00:53:18;;;;;;;;;;;;;;;14.28;87.49;101184.94;107009;1275;22653;-54
2024/04/08 00:55:46;;;;;;;;;;;;;;;14.30;87.54;101181.59;106908;1275;22479;-53
2024/04/08 00:58:12;;;;;;;;;;;;;;;14.30;87.37;101184.41;106931;1275;24111;-52
2024/04/08 01:00:42;;;;;;;;;;;;;;;14.28;87.21;101181.02;106859;1275;23859;-54
2024/04/08 01:03:10;;;;;;;;;;;;;;;14.24;87.17;101179.65;106830;1275;22452;-50
2024/04/08 01:05:37;;;;;;;;;;;;;;;14.18;87.30;101172.07;106805;1275;22511;-50
2024/04/08 01:08:04;;;;;;;;;;;;;;;14.15;87.24;101167.64;106840;1275;22653;-52
2024/04/08 01:10:30;;;;;;;;;;;;;;;14.11;87.14;101162.58;106828;1275;22589;-52
2024/04/08 01:12:59;;;;;;;;;;;;;;;14.09;87.38;101162.88;106819;1275;22936;-50
2024/04/08 01:15:26;;;;;;;;;;;;;;;14.06;87.40;101160.20;106797;1275;22752;-50
2024/04/08 01:17:53;;;;;;;;;;;;;;;14.05;87.52;101159.25;106781;1275;24321;-49
2024/04/08 01:20:19;;;;;;;;;;;;;;;14.03;87.38;101155.10;106834;1275;22588;-53
2024/04/08 01:22:46;;;;;;;;;;;;;;;14.00;87.58;101149.95;106810;1275;22494;-51
2024/04/08 01:25:16;;;;;;;;;;;;;;;13.99;87.69;101154.32;106842;1275;22448;-52
2024/04/08 01:27:42;;;;;;;;;;;;;;;13.94;87.82;101152.83;106831;1275;25259;-49
2024/04/08 01:30:09;;;;;;;;;;;;;;;13.89;87.80;101153.88;106938;1275;22446;-49
2024/04/08 01:32:36;;;;;;;;;;;;;;;13.85;88.09;101154.70;106920;1275;22508;-50
2024/04/08 01:35:03;;;;;;;;;;;;;;;13.82;88.19;101152.20;107088;1275;24216;-50
2024/04/08 01:37:32;;;;;;;;;;;;;;;13.81;88.25;101147.30;106988;1275;22530;-50
2024/04/08 01:39:58;;;;;;;;;;;;;;;13.81;88.43;101142.52;106766;1275;25383;-51
2024/04/08 01:42:25;;;;;;;;;;;;;;;13.80;88.51;101136.58;106829;1275;25335;-49
2024/04/08 01:44:54;;;;;;;;;;;;;;;13.80;88.67;101139.60;106896;1275;24228;-48
2024/04/08 01:47:21;;;;;;;;;;;;;;;13.81;88.84;101144.09;106812;1275;22485;-49
2024/04/08 01:49:47;;;;;;;;;;;;;;;13.84;88.95;101142.85;106778;1275;25200;-52
2024/04/08 01:52:13;;;;;;;;;;;;;;;13.87;88.91;101137.52;106835;1275;24103;-51
2024/04/08 01:54:40;;;;;;;;;;;;;;;13.88;88.88;101131.05;106797;1275;22433;-51
2024/04/08 01:57:07;;;;;;;;;;;;;;;13.88;88.89;101140.08;106804;1275;25281;-51
2024/04/08 01:59:33;;;;;;;;;;;;;;;13.89;88.95;101146.08;106791;1275;23866;-50
2024/04/08 02:02:00;;;;;;;;;;;;;;;13.89;89.06;101151.95;106819;1275;22466;-49
2024/04/08 02:04:26;;;;;;;;;;;;;;;13.88;89.20;101151.64;106565;1275;342665;-50
2024/04/08 02:06:53;;;;;;;;;;;;;;;13.90;89.29;101149.93;106833;1275;25871;-50
2024/04/08 02:09:19;;;;;;;;;;;;;;;13.90;89.34;101146.52;106860;1275;24694;-50
2024/04/08 02:11:46;;;;;;;;;;;;;;;13.92;89.30;101145.52;106818;1275;25915;-51
2024/04/08 02:14:12;;;;;;;;;;;;;;;13.93;89.36;101139.37;106821;1275;24075;-51
2024/04/08 02:16:39;;;;;;;;;;;;;;;13.95;89.18;101135.35;107067;1275;22515;-52
2024/04/08 02:19:05;;;;;;;;;;;;;;;13.94;89.01;101131.15;106985;1275;23874;-50
2024/04/08 02:21:32;;;;;;;;;;;;;;;13.93;89.09;101127.52;106822;1275;22928;-50
2024/04/08 02:23:58;;;;;;;;;;;;;;;13.92;89.10;101129.35;106863;1273;22526;-51
2024/04/08 02:26:25;;;;;;;;;;;;;;;13.91;89.05;101125.66;106867;1275;24156;-49
2024/04/08 02:28:51;;;;;;;;;;;;;;;13.89;88.91;101121.89;106951;1275;22524;-52
2024/04/08 02:31:18;;;;;;;;;;;;;;;13.88;88.99;101118.80;106993;1275;25337;-52
2024/04/08 02:33:45;;;;;;;;;;;;;;;13.87;88.99;101111.21;106977;1275;24260;-53
2024/04/08 02:36:12;;;;;;;;;;;;;;;13.86;89.06;101100.45;106917;1275;22461;-53
2024/04/08 02:38:38;;;;;;;;;;;;;;;13.86;89.11;101094.38;106947;1275;22495;-53
2024/04/08 02:41:05;;;;;;;;;;;;;;;13.85;89.13;101085.92;107070;1275;24057;-50
2024/04/08 02:43:34;;;;;;;;;;;;;;;13.82;89.10;101086.81;106895;1275;22873;-48
2024/04/08 02:46:00;;;;;;;;;;;;;;;13.81;89.28;101095.95;106811;1275;24179;-49
2024/04/08 02:48:27;;;;;;;;;;;;;;;13.81;89.22;101096.71;106831;1275;22517;-47
2024/04/08 02:50:53;;;;;;;;;;;;;;;13.80;89.33;101095.70;106791;1275;25243;-49
2024/04/08 02:53:20;;;;;;;;;;;;;;;13.79;89.48;101094.84;106816;1275;25936;-48
2024/04/08 02:55:46;;;;;;;;;;;;;;;13.80;89.44;101093.88;106815;1275;23707;-48
2024/04/08 02:58:13;;;;;;;;;;;;;;;13.82;89.59;101087.39;106796;1275;25221;-48
2024/04/08 03:00:40;;;;;;;;;;;;;;;13.83;89.80;101083.98;106846;1275;22853;-50
2024/04/08 03:03:06;;;;;;;;;;;;;;;13.82;89.73;101083.98;106930;1275;22528;-47
2024/04/08 03:05:33;;;;;;;;;;;;;;;13.83;89.82;101082.19;107095;1275;22436;-48
2024/04/08 03:08:00;;;;;;;;;;;;;;;13.80;89.82;101079.00;106979;1275;22668;-49
2024/04/08 03:10:26;;;;;;;;;;;;;;;13.77;89.73;101070.12;106876;1275;22484;-49
2024/04/08 03:12:53;;;;;;;;;;;;;;;13.76;89.87;101062.91;106875;1275;24142;-51
2024/04/08 03:15:20;;;;;;;;;;;;;;;13.76;89.96;101064.64;106946;1275;22519;-48
2024/04/08 03:17:46;;;;;;;;;;;;;;;13.76;90.06;101063.95;106868;1275;24303;-48
2024/04/08 03:20:13;;;;;;;;;;;;;;;13.76;90.31;101064.31;106828;1275;22502;-49
2024/04/08 03:22:40;;;;;;;;;;;;;;;13.77;90.30;101067.98;106888;1275;22537;-50
2024/04/08 03:25:06;;;;;;;;;;;;;;;13.79;90.38;101073.89;107016;1275;22499;-50
2024/04/08 03:27:36;;;;;;;;;;;;;;;13.78;90.36;101082.49;106909;1275;22672;-49
2024/04/08 03:30:03;;;;;;;;;;;;;;;13.78;90.48;101091.19;106991;1275;22496;-49
2024/04/08 03:32:31;;;;;;;;;;;;;;;13.78;90.48;101094.77;107072;1275;22641;-48
2024/04/08 03:34:58;;;;;;;;;;;;;;;13.78;90.51;101090.52;106849;1275;22430;-50
2024/04/08 03:37:27;;;;;;;;;;;;;;;13.79;90.67;101089.91;106829;1275;25507;-51
2024/04/08 03:39:56;;;;;;;;;;;;;;;13.79;90.62;101092.77;106851;1275;24171;-49
2024/04/08 03:42:23;;;;;;;;;;;;;;;13.80;90.72;101099.05;106814;1275;23927;-50
2024/04/08 03:44:52;;;;;;;;;;;;;;;13.82;90.82;101104.30;106825;1267;22492;-48
2024/04/08 03:47:18;;;;;;;;;;;;;;;13.83;90.88;101113.81;106859;1275;22454;-48
2024/04/08 03:49:46;;;;;;;;;;;;;;;13.83;91.05;101116.26;106813;1275;22665;-49
2024/04/08 03:52:12;;;;;;;;;;;;;;;13.83;91.02;101115.77;106922;1275;22431;-51
2024/04/08 03:54:41;;;;;;;;;;;;;;;13.81;90.90;101119.03;106994;1275;22922;-52
2024/04/08 03:57:08;;;;;;;;;;;;;;;13.81;91.06;101124.20;106847;1275;22474;-50
2024/04/08 03:59:35;;;;;;;;;;;;;;;13.81;91.10;101114.98;106931;1275;25873;-48
2024/04/08 04:02:01;;;;;;;;;;;;;;;13.81;91.30;101100.39;106818;1275;22549;-49
2024/04/08 04:04:28;;;;;;;;;;;;;;;13.83;91.29;101099.94;106861;1275;25354;-52
2024/04/08 04:06:55;;;;;;;;;;;;;;;13.81;91.31;101098.45;106828;1275;22802;-49
2024/04/08 04:09:24;;;;;;;;;;;;;;;13.79;91.25;101091.10;106846;1275;22501;-49
2024/04/08 04:11:53;;;;;;;;;;;;;;;13.78;91.35;101086.95;106754;1275;22503;-49
2024/04/08 04:14:21;;;;;;;;;;;;;;;13.76;91.49;101084.16;106796;1275;23864;-50
2024/04/08 04:16:51;;;;;;;;;;;;;;;13.75;91.51;101076.66;106970;1275;25336;-49
2024/04/08 04:19:17;;;;;;;;;;;;;;;13.71;91.50;101073.16;107017;1275;25508;-50
2024/04/08 04:21:44;;;;;;;;;;;;;;;13.69;91.86;101070.44;106899;1275;22485;-49
2024/04/08 04:24:11;;;;;;;;;;;;;;;13.67;91.91;101067.39;106856;1275;22650;-50
2024/04/08 04:26:39;;;;;;;;;;;;;;;13.65;92.01;101051.72;106825;1275;22502;-52
2024/04/08 04:29:06;;;;;;;;;;;;;;;13.65;92.01;101048.89;106784;1275;22451;-52
2024/04/08 04:31:42;;;;;;;;;;;;;;;13.66;92.11;101047.40;106926;1275;22807;-52
2024/04/08 04:34:09;;;;;;;;;;;;;;;13.66;92.10;101049.03;106912;1275;25214;-48
2024/04/08 04:36:36;;;;;;;;;;;;;;;13.64;92.10;101046.86;106939;1275;22724;-49
2024/04/08 04:39:03;;;;;;;;;;;;;;;13.61;92.19;101041.15;106785;1275;25301;-48
2024/04/08 04:41:29;;;;;;;;;;;;;;;13.60;92.25;101029.90;106797;1275;22499;-49
2024/04/08 04:43:56;;;;;;;;;;;;;;;13.58;92.27;101021.83;106841;1273;25499;-48
2024/04/08 04:46:25;;;;;;;;;;;;;;;13.56;92.33;101015.57;106864;1275;22474;-49
2024/04/08 04:48:52;;;;;;;;;;;;;;;13.54;92.36;101008.73;106829;1275;25261;-48
2024/04/08 04:51:22;;;;;;;;;;;;;;;13.53;92.54;101009.53;106826;1275;22429;-49
2024/04/08 04:53:48;;;;;;;;;;;;;;;13.51;92.77;101008.77;106805;1275;23850;-48
2024/04/08 04:56:15;;;;;;;;;;;;;;;13.50;92.86;101009.38;106790;1275;25227;-51
2024/04/08 04:58:44;;;;;;;;;;;;;;;13.50;92.93;101013.68;106837;1275;24288;-50
2024/04/08 05:01:10;;;;;;;;;;;;;;;13.51;92.92;101015.16;106847;1275;22517;-48
2024/04/08 05:03:37;;;;;;;;;;;;;;;13.54;92.84;101015.36;106913;1275;25971;-50
2024/04/08 05:06:04;;;;;;;;;;;;;;;13.56;92.98;101019.83;106949;1275;22644;-48
2024/04/08 05:08:31;;;;;;;;;;;;;;;13.57;92.97;101023.84;106868;1275;24071;-48
2024/04/08 05:10:57;;;;;;;;;;;;;;;13.58;92.97;101026.84;107029;1275;22604;-48
2024/04/08 05:13:24;;;;;;;;;;;;;;;13.59;92.98;101022.29;106884;1275;24324;-48
2024/04/08 05:16:11;;;;;;;;;;;;;;;13.61;92.91;101023.39;106929;1275;22438;-52
2024/04/08 05:18:37;;;;;;;;;;;;;;;13.64;93.12;101032.28;106816;1273;22446;-49
2024/04/08 05:21:04;;;;;;;;;;;;;;;13.67;93.09;101032.44;106819;1275;22880;-49
2024/04/08 05:23:31;;;;;;;;;;;;;;;13.69;92.87;101039.23;106773;1275;22446;-48
2024/04/08 05:25:57;;;;;;;;;;;;;;;13.68;92.90;101033.97;106825;1275;23974;-49
2024/04/08 05:28:24;;;;;;;;;;;;;;;13.67;92.86;101028.33;106820;1275;25508;-48
2024/04/08 05:30:50;;;;;;;;;;;;;;;13.68;92.81;101034.67;106813;1275;24212;-49
2024/04/08 05:33:17;;;;;;;;;;;;;;;13.67;92.76;101034.73;106887;1275;22430;-47
2024/04/08 05:35:44;;;;;;;;;;;;;;;13.67;93.01;101034.52;106918;1275;22453;-48
2024/04/08 05:38:11;;;;;;;;;;;;;;;13.68;93.10;101033.92;107074;1275;23317;-48
2024/04/08 05:40:38;;;;;;;;;;;;;;;13.69;93.03;101037.61;106944;1275;24586;-49
2024/04/08 05:43:05;;;;;;;;;;;;;;;13.70;93.04;101040.35;106804;1275;25380;-48
2024/04/08 05:45:32;;;;;;;;;;;;;;;13.71;93.09;101047.97;106984;1275;22511;-48
2024/04/08 05:48:01;;;;;;;;;;;;;;;13.67;93.01;101058.86;106992;1275;23910;-48
2024/04/08 05:50:28;;;;;;;;;;;;;;;13.63;93.14;101064.65;106802;1273;24176;-48
2024/04/08 05:52:54;;;;;;;;;;;;;;;13.62;93.20;101061.55;106806;1275;25290;-48
2024/04/08 05:55:21;;;;;;;;;;;;;;;13.62;93.43;101058.69;106869;1275;22432;-50
2024/04/08 05:57:48;;;;;;;;;;;;;;;13.64;93.50;101057.16;106928;1267;25383;-48
2024/04/08 06:00:20;;;;;;;;;;;;;;;13.65;93.40;101072.33;106790;1275;22511;-51
2024/04/08 06:02:52;;;;;;;;;;;;;;;13.68;93.59;101084.04;106983;1259;24180;-49
2024/04/08 06:05:19;;;;;;;;;;;;;;;13.71;93.67;101102.84;107050;1267;25854;-53
2024/04/08 06:07:48;;;;;;;;;;;;;;;13.73;93.68;101113.88;106960;1274;24175;-49
2024/04/08 06:10:22;;;;;;;;;;;;;;;13.76;93.62;101123.83;106857;1267;22610;-50
2024/04/08 06:12:49;;;;;;;;;;;;;;;13.76;93.59;101126.45;106784;1269;25351;-49
2024/04/08 06:15:16;;;;;;;;;;;;;;;13.75;93.65;101125.63;106976;1274;22453;-51
2024/04/08 06:17:43;;;;;;;;;;;;;;;13.74;93.46;101117.15;107005;1275;22429;-53
2024/04/08 06:20:10;;;;;;;;;;;;;;;13.75;93.53;101102.23;107207;1274;22565;-52
2024/04/08 06:22:39;;;;;;;;;;;;;;;13.76;93.84;101065.58;106964;1267;22805;-52
2024/04/08 06:25:06;;;;;;;;;;;;;;;13.77;93.84;101032.98;106983;1267;22575;-50
2024/04/08 06:27:33;;;;;;;;;;;;;;;13.78;93.90;101021.05;106988;1268;22772;-52
2024/04/08 06:30:00;;;;;;;;;;;;;;;13.80;94.20;101015.59;106900;1275;22615;-48
2024/04/08 06:32:27;;;;;;;;;;;;;;;13.80;94.06;101034.73;106844;1260;22824;-48
2024/04/08 06:34:54;;;;;;;;;;;;;;;13.82;94.02;101054.20;106922;1269;22441;-50
2024/04/08 06:37:21;;;;;;;;;;;;;;;13.82;94.22;101067.31;106868;1274;22619;-48
2024/04/08 06:39:52;;;;;;;;;;;;;;;13.82;94.26;101066.08;106810;1275;22425;-48
2024/04/08 06:42:19;;;;;;;;;;;;;;;13.84;94.37;101067.55;106917;1274;22673;-50
2024/04/08 06:44:49;;;;;;;;;;;;;;;13.87;94.44;101068.55;106893;1268;22466;-52
2024/04/08 06:47:16;;;;;;;;;;;;;;;13.91;94.49;101068.84;106901;1267;25347;-49
2024/04/08 06:49:45;;;;;;;;;;;;;;;13.95;94.41;101066.82;106990;1273;22967;-49
2024/04/08 06:52:12;;;;;;;;;;;;;;;14.01;94.58;101063.23;107120;1272;22490;-50
2024/04/08 06:54:38;;;;;;;;;;;;;;;14.08;94.91;101064.33;106858;1268;23046;-50
2024/04/08 06:57:05;;;;;;;;;;;;;;;14.15;94.58;101071.16;106758;1273;22446;-48
2024/04/08 06:59:31;;;;;;;;;;;;;;;14.19;94.03;101074.23;106899;1268;22425;-50
2024/04/08 07:01:58;;;;;;;;;;;;;;;14.23;93.93;101074.86;106856;1275;22532;-49
2024/04/08 07:04:24;;;;;;;;;;;;;;;14.29;94.28;101077.16;106863;1269;22610;-49
2024/04/08 07:06:54;;;;;;;;;;;;;;;14.32;94.23;101082.42;106868;1269;25843;-50
2024/04/08 07:09:25;;;;;;;;;;;;;;;14.33;93.85;101090.30;106889;1267;22884;-49
2024/04/08 07:11:52;;;;;;;;;;;;;;;14.33;93.49;101093.38;106916;1274;25883;-49
2024/04/08 07:14:19;;;;;;;;;;;;;;;14.34;93.30;101091.33;106944;1274;24206;-49
2024/04/08 07:16:46;;;;;;;;;;;;;;;14.36;93.54;101087.83;106792;1269;25172;-49
2024/04/08 07:19:12;;;;;;;;;;;;;;;14.40;93.46;101085.42;106842;1269;22442;-49
2024/04/08 07:21:39;;;;;;;;;;;;;;;14.44;93.19;101088.05;106850;1267;22808;-49
2024/04/08 07:24:07;;;;;;;;;;;;;;;14.47;93.18;101090.65;106823;1267;22446;-49
2024/04/08 07:26:34;;;;;;;;;;;;;;;14.49;93.01;101091.19;106925;1274;22707;-51
2024/04/08 07:29:01;;;;;;;;;;;;;;;14.52;92.95;101091.19;106857;1271;24161;-49
2024/04/08 07:31:27;;;;;;;;;;;;;;;14.55;92.75;101088.67;106867;1268;22582;-51
2024/04/08 07:33:54;;;;;;;;;;;;;;;14.59;92.85;101089.17;106882;1267;22530;-52
2024/04/08 07:36:20;;;;;;;;;;;;;;;14.62;92.43;101073.86;107018;1270;24207;-50
2024/04/08 07:38:47;;;;;;;;;;;;;;;14.64;92.33;101066.02;107107;1267;25226;-51
2024/04/08 07:41:26;;;;;;;;;;;;;;;14.70;92.40;101063.63;106823;1268;24172;-49
2024/04/08 07:43:56;;;;;;;;;;;;;;;14.77;92.47;101067.43;106919;1275;23871;-51
2024/04/08 07:46:23;;;;;;;;;;;;;;;14.82;92.11;101061.88;106857;1271;25301;-52
2024/04/08 07:48:49;;;;;;;;;;;;;;;14.87;91.41;101061.23;106881;1271;22563;-52
2024/04/08 07:51:16;;;;;;;;;;;;;;;14.89;91.39;101061.77;107025;1268;22599;-52
2024/04/08 07:53:42;;;;;;;;;;;;;;;14.92;91.06;101058.20;107067;1272;22461;-53
2024/04/08 07:56:09;;;;;;;;;;;;;;;14.97;91.36;101058.20;106953;1275;25385;-53
2024/04/08 07:58:38;;;;;;;;;;;;;;;15.05;91.55;101060.66;107008;1275;22507;-53
2024/04/08 08:01:04;;;;;;;;;;;;;;;15.13;91.29;101055.94;107123;1256;25365;-53
2024/04/08 08:03:31;;;;;;;;;;;;;;;15.24;91.22;101053.73;107083;1269;22459;-49
2024/04/08 08:05:57;;;;;;;;;;;;;;;15.37;91.36;101056.70;106878;1268;24154;-53
2024/04/08 08:08:26;;;;;;;;;;;;;;;15.46;90.57;101056.58;106922;1267;22459;-53
2024/04/08 08:10:55;;;;;;;;;;;;;;;15.60;91.13;101048.29;106933;1268;22667;-49
2024/04/08 08:13:22;;;;;;;;;;;;;;;15.74;90.96;101044.02;106998;1271;22477;-52
2024/04/08 08:15:53;;;;;;;;;;;;;;;15.87;89.66;101040.09;107165;1268;24239;-50
2024/04/08 08:18:19;;;;;;;;;;;;;;;15.94;89.12;101026.65;106984;1272;24161;-53
2024/04/08 08:20:46;;;;;;;;;;;;;;;16.04;89.06;101021.42;107049;1274;22494;-53
2024/04/08 08:23:13;;;;;;;;;;;;;;;16.12;87.40;101013.74;106842;1267;24190;-53
2024/04/08 08:25:39;;;;;;;;;;;;;;;16.19;87.31;101011.55;107127;1275;22512;-53
2024/04/08 08:28:06;;;;;;;;;;;;;;;16.30;87.24;101003.45;107052;1267;24201;-52
2024/04/08 08:30:36;;;;;;;;;;;;;;;16.40;86.08;100997.98;106960;1268;25478;-52
2024/04/08 08:33:03;;;;;;;;;;;;;;;16.50;85.54;100997.01;106918;1270;25204;-51
2024/04/08 08:35:33;;;;;;;;;;;;;;;16.62;85.39;100990.39;106854;1267;22435;-52
2024/04/08 08:37:59;;;;;;;;;;;;;;;16.74;84.27;100985.71;106861;1272;22492;-54
2024/04/08 08:40:26;;;;;;;;;;;;;;;16.83;83.45;100991.38;107053;1268;25221;-53
2024/04/08 08:42:54;;;;;;;;;;;;;;;16.92;82.64;100982.80;107055;1274;22523;-51
2024/04/08 08:45:21;;;;;;;;;;;;;;;17.02;82.49;100966.52;106971;1274;24202;-51
2024/04/08 08:47:48;;;;;;;;;;;;;;;17.11;82.15;100958.81;106972;1267;22541;-53
2024/04/08 08:50:14;;;;;;;;;;;;;;;17.19;81.07;100960.47;106952;1267;22963;-52
2024/04/08 08:52:41;;;;;;;;;;;;;;;17.28;80.52;100972.00;106858;1268;22499;-51
2024/04/08 08:55:11;;;;;;;;;;;;;;;17.35;78.67;100981.61;106928;1267;25295;-54
2024/04/08 08:57:38;;;;;;;;;;;;;;;17.41;78.27;100985.44;106979;1274;22495;-54
2024/04/08 09:00:05;;;;;;;;;;;;;;;17.52;79.14;100994.84;107008;1269;25369;-53
2024/04/08 09:02:33;;;;;;;;;;;;;;;17.67;78.51;100989.00;107003;1274;24163;-53
2024/04/08 09:04:59;;;;;;;;;;;;;;;17.80;77.42;100988.61;106962;1274;22664;-53
2024/04/08 09:07:26;;;;;;;;;;;;;;;17.93;76.82;100994.65;106894;1268;22680;-54
2024/04/08 09:09:56;;;;;;;;;;;;;;;18.06;76.02;100997.84;106844;1275;22491;-54
2024/04/08 09:12:23;;;;;;;;;;;;;;;18.14;75.25;100998.97;106914;1272;25470;-53
2024/04/08 09:14:54;;;;;;;;;;;;;;;18.22;75.02;101000.80;106790;1275;25220;-53
2024/04/08 09:17:21;;;;;;;;;;;;;;;18.32;74.47;100999.92;106867;1274;24178;-53
2024/04/08 09:19:47;;;;;;;;;;;;;;;18.41;73.96;101001.13;106963;1268;22922;-55
2024/04/08 09:22:16;;;;;;;;;;;;;;;18.51;73.16;100990.42;107080;1267;25247;-54
2024/04/08 09:24:43;;;;;;;;;;;;;;;18.61;72.37;100981.69;107020;1273;22502;-54
2024/04/08 09:27:12;;;;;;;;;;;;;;;18.71;72.01;100975.05;106975;1262;24066;-54
2024/04/08 09:29:39;;;;;;;;;;;;;;;18.80;71.12;100976.77;106853;1274;22563;-54
2024/04/08 09:32:08;;;;;;;;;;;;;;;18.89;70.57;100975.29;106879;1274;22458;-54
2024/04/08 09:34:35;;;;;;;;;;;;;;;18.94;69.23;100977.89;106899;1275;22428;-54
2024/04/08 09:37:03;;;;;;;;;;;;;;;19.01;68.83;100976.33;106854;1267;24167;-55
2024/04/08 09:39:30;;;;;;;;;;;;;;;19.11;69.15;100978.16;106832;1265;22583;-55
2024/04/08 09:41:58;;;;;;;;;;;;;;;19.22;68.56;100978.38;106886;1274;25017;-54
2024/04/08 09:44:30;;;;;;;;;;;;;;;19.37;68.35;100976.98;106894;1274;25239;-54
2024/04/08 09:47:00;;;;;;;;;;;;;;;19.52;67.14;100976.92;107142;1275;22590;-55
2024/04/08 09:49:27;;;;;;;;;;;;;;;19.65;66.38;100972.52;106967;1267;24128;-55
2024/04/08 09:52:01;;;;;;;;;;;;;;;19.78;65.34;100966.45;106887;1275;22531;-52
2024/04/08 09:54:27;;;;;;;;;;;;;;;19.85;65.05;100967.23;106885;1268;22926;-55
2024/04/08 09:56:58;;;;;;;;;;;;;;;19.97;65.46;100970.75;107034;1274;22601;-55
2024/04/08 09:59:28;;;;;;;;;;;;;;;20.11;65.34;100968.05;106865;1269;22647;-55
2024/04/08 10:01:54;;;;;;;;;;;;;;;20.21;64.72;100962.21;106834;1275;23924;-55
2024/04/08 10:04:22;;;;;;;;;;;;;;;20.32;64.54;100956.52;106843;1273;25344;-55
2024/04/08 10:06:49;;;;;;;;;;;;;;;20.43;64.35;100950.98;106938;1263;25405;-55
2024/04/08 10:09:16;;;;;;;;;;;;;;;20.51;63.37;100950.15;106912;1271;25344;-54
2024/04/08 10:11:46;;;;;;;;;;;;;;;20.63;63.16;100953.32;106879;1268;22418;-55
2024/04/08 10:14:17;;;;;;;;;;;;;;;20.76;62.14;100954.29;106972;1274;24247;-56
2024/04/08 10:16:44;;;;;;;;;;;;;;;20.87;62.22;100949.45;107013;1267;25345;-56
2024/04/08 10:19:11;;;;;;;;;;;;;;;21.01;62.07;100947.52;106944;1262;25287;-55
2024/04/08 10:21:37;;;;;;;;;;;;;;;21.15;61.61;100942.48;107083;1268;22547;-55
2024/04/08 10:24:05;;;;;;;;;;;;;;;21.25;59.03;100938.34;107219;1267;24230;-56
2024/04/08 10:26:37;;;;;;;;;;;;;;;21.28;58.40;100940.29;107168;1268;22523;-56
2024/04/08 10:29:05;;;;;;;;;;;;;;;21.38;59.17;100937.02;106938;1272;22537;-56
2024/04/08 10:31:31;;;;;;;;;;;;;;;21.53;59.77;100926.52;106914;1268;22515;-55
2024/04/08 10:33:58;;;;;;;;;;;;;;;21.68;59.31;100917.10;106876;1268;22435;-55
2024/04/08 10:36:24;;;;;;;;;;;;;;;21.79;58.96;100914.34;106840;1267;22810;-55
2024/04/08 10:38:51;;;;;;;;;;;;;;;21.91;58.44;100912.17;106830;1274;22517;-55
2024/04/08 10:41:17;;;;;;;;;;;;;;;22.08;58.70;100914.39;106845;1265;22506;-55
2024/04/08 10:43:45;;;;;;;;;;;;;;;22.24;56.82;100916.21;106925;1273;22919;-55
2024/04/08 10:46:17;;;;;;;;;;;;;;;22.33;56.13;100914.32;106973;1271;25468;-55
2024/04/08 10:48:46;;;;;;;;;;;;;;;22.41;54.85;100917.67;106875;1275;22505;-55
2024/04/08 10:51:13;;;;;;;;;;;;;;;22.42;55.52;100917.20;106865;1271;25159;-55
2024/04/08 10:53:42;;;;;;;;;;;;;;;22.45;55.39;100913.25;106922;1268;22874;-54
2024/04/08 10:56:09;;;;;;;;;;;;;;;22.45;55.40;100915.73;107018;1267;22517;-54
2024/04/08 10:58:35;;;;;;;;;;;;;;;22.41;54.47;100918.71;107077;1259;25386;-56
2024/04/08 11:01:05;;;;;;;;;;;;;;;22.40;54.79;100912.70;107005;1269;22573;-55
2024/04/08 11:03:31;;;;;;;;;;;;;;;22.43;54.96;100906.80;106825;1268;25330;-54
2024/04/08 11:06:00;;;;;;;;;;;;;;;22.50;54.99;100904.60;106857;1267;24155;-46
2024/04/08 11:08:27;;;;;;;;;;;;;;;22.55;54.42;100903.54;106831;1262;24199;-49
2024/04/08 11:10:56;;;;;;;;;;;;;;;22.52;53.96;100898.80;106989;1267;22496;-49
2024/04/08 11:13:22;;;;;;;;;;;;;;;22.57;54.68;100899.02;106909;1275;22694;-48
2024/04/08 11:15:49;;;;;;;;;;;;;;;22.57;54.78;100903.48;106992;1274;22457;-47
2024/04/08 11:18:18;;;;;;;;;;;;;;;22.60;55.00;100899.95;106977;1274;25373;-50
2024/04/08 11:20:45;;;;;;;;;;;;;;;22.62;54.86;100891.48;107056;1267;24248;-49
2024/04/08 11:23:14;;;;;;;;;;;;;;;22.65;54.27;100882.27;107123;1269;24182;-47
2024/04/08 11:25:43;;;;;;;;;;;;;;;22.64;53.27;100875.35;106833;1275;22656;-50
2024/04/08 11:28:10;;;;;;;;;;;;;;;22.62;53.17;100875.30;106882;1275;25207;-50
2024/04/08 11:30:37;;;;;;;;;;;;;;;22.56;53.21;100873.53;106854;1271;22588;-50
2024/04/08 11:33:06;;;;;;;;;;;;;;;22.53;53.82;100875.51;107058;1273;24240;-51
2024/04/08 11:35:35;;;;;;;;;;;;;;;22.49;53.64;100878.03;107105;1273;25246;-48
2024/04/08 11:38:06;;;;;;;;;;;;;;;22.45;54.00;100883.15;107156;1273;25895;-50
2024/04/08 11:40:42;;;;;;;;;;;;;;;22.42;53.93;100882.55;107027;1275;22498;-51
2024/04/08 11:43:11;;;;;;;;;;;;;;;22.39;53.75;100880.80;106896;1274;25907;-50
2024/04/08 11:45:37;;;;;;;;;;;;;;;22.34;53.84;100881.86;106920;1274;22429;-52
2024/04/08 11:48:06;;;;;;;;;;;;;;;22.30;54.02;100873.06;106907;1274;24153;-50
2024/04/08 11:50:34;;;;;;;;;;;;;;;22.27;54.18;100869.98;106984;1269;25183;-50
2024/04/08 11:53:01;;;;;;;;;;;;;;;22.25;54.56;100869.29;107053;1275;25196;-51
2024/04/08 11:55:28;;;;;;;;;;;;;;;22.20;54.19;100871.45;106999;1266;22436;-48
2024/04/08 11:57:54;;;;;;;;;;;;;;;22.13;54.46;100875.92;106974;1267;22539;-47
2024/04/08 12:00:21;;;;;;;;;;;;;;;22.09;54.72;100880.59;107169;1273;22538;-46
2024/04/08 12:02:47;;;;;;;;;;;;;;;22.05;54.67;100878.75;106922;1265;22528;-46
2024/04/08 12:05:16;;;;;;;;;;;;;;;21.96;54.75;100870.46;106904;1275;22591;-47
2024/04/08 12:07:43;;;;;;;;;;;;;;;21.91;55.06;100855.91;106907;1268;22438;-46
2024/04/08 12:10:10;;;;;;;;;;;;;;;21.86;55.14;100853.17;106865;1269;22655;-46
2024/04/08 12:12:37;;;;;;;;;;;;;;;21.80;55.18;100855.38;106948;1271;22517;-46
2024/04/08 12:15:05;;;;;;;;;;;;;;;21.78;55.20;100857.81;106803;1255;24278;-46
2024/04/08 12:17:31;;;;;;;;;;;;;;;21.71;55.17;100854.88;106924;1276;22476;-45
2024/04/08 12:19:58;;;;;;;;;;;;;;;21.66;55.50;100861.75;106753;1277;24250;-48
2024/04/08 12:22:24;;;;;;;;;;;;;;;21.60;55.60;100861.23;106975;1261;22497;-46
2024/04/08 12:24:51;;;;;;;;;;;;;;;21.50;55.46;100855.08;106846;1276;22621;-45
2024/04/08 12:27:19;;;;;;;;;;;;;;;21.42;55.68;100856.62;106743;1270;24326;-47